Používaním stránok prevádzkovaných PROFIPILOT, s.r.o. súhlasíte s používaním cookies, ktoré nám pomáhajú zabezpečiť lepšie služby.OK

Briefing

MAPA | METAR | TAF | METEO SITUÁCIA
MAPA | METAR | TAF | METEO SITUÁCIA

Predpoveď na dnes

Malá, miestami aj zväčšená oblačnosť. Ojedinele prehánky alebo búrky. VEĽMI TEPLO. Najvyššia denná teplota 22 až 27 st., na Orave a pod Tatrami okolo 20 st. Teplota na horách vo výške 1500 m okolo 11 st. Prevažne južný vietor 2 až 8 m/s (5 až 30 km/h), na severe a západe v nárazoch ojedinele okolo 14 m/s (50 km/h). Na hrebeňoch hôr prudký až búrlivý vietor. K večeru vietor miestami zoslabne. Predpokladané množstvo zrážok: do 1 mm, pri búrkach okolo 5 mm

SHMÚ, OMPaV, NP 25.4.2019 11:56 LSEČ

MAPA | METAR | TAF | METEO SITUÁCIA

TAF - Letisková predpoveď

25.04.2019 - 17:00 UTC

TAF LZIB 251700Z 2518/2618 16012KT CAVOK
     TEMPO 2608/2617 18020G35KT=
 TAF LZKZ 251700Z 2518/2618 20008KT CAVOK
     PROB40 TEMPO 2601/2605 VRB02KT 6000 NSC
     TEMPO 2608/2616 21015G25KT 9999 SCT040=
 TAF LZTT 251700Z 2518/2618 25006KT CAVOK
     TEMPO 2611/2616 22013G23KT 9999 SCT050=
 

25.04.2019 - 17:00 UTC

TAF LZSL 251700Z 2518/2603 16008KT 9999 SCT060
     BECMG 2518/2520 VRB02KT CAVOK
     PROB30 TEMPO 2601/2603 5000 BR NSC=
 TAF LZPP 251700Z 2518/2603 15013KT CAVOK
     TEMPO 2518/2520 16016G26KT=
 TAF LZZI 251700Z 2518/2603 15006KT CAVOK
     BECMG 2520/2522 VRB02KT=
 

25.04.2019 - 14:00 UTC

TAF LZSL 251400Z 2515/2600 16008KT 9999 SCT060
     BECMG 2518/2520 VRB02KT CAVOK=
 TAF LZPP 251400Z 2515/2600 15013KT CAVOK
     TEMPO 2515/2520 16016G26KT=
 TAF LZZI 251400Z 2515/2600 15006KT 9999 SCT052
     TEMPO 2515/2517 17014KT
     BECMG 2518/2520 CAVOK=
 

25.04.2019 - 11:00 UTC

TAF LZIB 251100Z 2512/2612 16010KT CAVOK
     TEMPO 2512/2612 18015G25KT=
 TAF LZKZ 251100Z 2512/2612 18010KT CAVOK
     TEMPO 2512/2517 9999 SCT045
     PROB40 TEMPO 2601/2605 VRB02KT 4000 BR NSC
     BECMG 2608/2610 21015G25KT=
 TAF LZTT 251100Z 2512/2612 19008KT 9999 FEW020 SCT040
     TEMPO 2512/2518 22012G25KT
     BECMG 2515/2517 CAVOK=
 

25.04.2019 - 11:00 UTC

TAF LZSL 251100Z 2512/2521 19010KT 9999 SCT050=
 TAF LZPP 251100Z 2512/2521 14012KT CAVOK
     TEMPO 2512/2521 16015G25KT 9999 SCT040=
 TAF LZZI 251100Z 2512/2521 21010KT 9999 SCT040=
 

25.04.2019 - 08:00 UTC

TAF LZSL 250800Z 2509/2518 VRB02KT 9999 SCT050
     BECMG 2509/2511 17008KT=
 TAF LZPP 250800Z 2509/2518 13012KT CAVOK
     TEMPO 2510/2518 15015G25KT 9999 SCT040=
 TAF LZZI 250800Z 2509/2518 21005KT 9999 SCT040
     PROB40 TEMPO 2513/2515 22010G20KT=
 

25.04.2019 - 05:00 UTC

TAF LZIB 250500Z 2506/2606 02006KT CAVOK
     BECMG 2507/2509 18010KT
     TEMPO 2511/2522 18015G25KT=
 TAF LZKZ 250500Z 2506/2606 20007KT CAVOK
     TEMPO 2506/2512 9999 FEW035 SCT075
     TEMPO 2512/2518 21015KT
     PROB40 TEMPO 2601/2605 4000 BR NSC=
 TAF LZTT 250500Z 2506/2606 19005KT 9999 FEW020 SCT040
     TEMPO 2513/2518 25012KT
     BECMG 2515/2517 CAVOK=
 

25.04.2019 - 05:00 UTC

TAF LZSL 250500Z 2506/2515 VRB02KT CAVOK
     TEMPO 2506/2510 9999 FEW040
     BECMG 2508/2510 17008KT=
 TAF LZPP 250500Z 2506/2515 13012KT CAVOK
     TEMPO 2506/2510 9999 FEW035
     TEMPO 2510/2515 15015G25KT=
 TAF LZZI 250500Z 2506/2515 20005KT CAVOK
     TEMPO 2506/2511 9999 FEW040
     PROB40 TEMPO 2513/2515 19010G25KT=
 

25.04.2019 - 02:00 UTC

TAF AMD LZSL 250228Z 2503/2512 VRB02KT 9999 BKN050
     PROB40 TEMPO 2503/2504 2200 BCFG SCT003 BKN050
     BECMG 2505/2507 FEW040
     BECMG 2508/2510 16008KT=
 

25.04.2019 - 02:00 UTC

TAF LZSL 250200Z 2503/2512 VRB02KT 9999 SCT035
     PROB40 TEMPO 2503/2504 4000 BCFG SCT003 SCT030
     BECMG 2505/2507 FEW040
     BECMG 2508/2510 16008KT=
 TAF LZZI 250200Z 2503/2512 17006KT CAVOK
     TEMPO 2503/2506 9999 FEW030=
 
MAPA | METAR | TAF | METEO SITUÁCIA

METAR - Letisková meteo správa

Letisková meteorologická správa METAR

Meteorologické informácie z ďalších profesionálnych meteorologických staníc SHMÚ zobrazené v tvare zodpovedajúcom pravidlám kódovania správ METAR sú uvedené v položke „METSYN Informácie o správe METAR

25.04.2019 - 17:30 UTC

METAR LZIB 251730Z 14008KT CAVOK 22/11 Q1012 NOSIG=
 METAR LZKZ 251730Z 18005KT CAVOK 18/10 Q1016=
 METAR LZPP 251730Z 15008KT CAVOK 23/09 Q1013=
 METAR LZSL 251730Z 15006KT CAVOK 21/08 Q1015=
 METAR LZTT 251730Z 22007KT 9999 FEW053 17/08 Q1017=
 METAR LZZI 251730Z 21003KT 120V260 CAVOK 21/07 Q1014=
 

25.04.2019 - 17:00 UTC

METAR LZIB 251700Z 16011KT CAVOK 24/10 Q1012 NOSIG=
 METAR LZKZ 251700Z 19006KT CAVOK 21/10 Q1016=
 METAR LZPP 251700Z 15010KT CAVOK 24/09 Q1013=
 METAR LZSL 251700Z 15005KT CAVOK 23/08 Q1015=
 METAR LZTT 251700Z 24010KT 9999 FEW050 18/08 Q1017=
 METAR LZZI 251700Z 18006KT 100V250 CAVOK 23/07 Q1014=
 

25.04.2019 - 17:00 UTC

METAR LZMC 251700Z 15012G22KT CAVOK 24/06 Q1013=
 METAR LZPW 251700Z 17014G24KT CAVOK 21/08 Q1016=
 
načítavam...